createdAt,value
2023-04-13T00:01:11.657Z,5.20
2023-04-13T00:03:39.435Z,4.86
2023-04-13T00:06:11.114Z,5.18
2023-04-13T00:08:38.628Z,5.15
2023-04-13T00:11:07.571Z,5.15
2023-04-13T00:13:41.284Z,5.04
2023-04-13T00:16:10.208Z,4.98
2023-04-13T00:18:37.284Z,5.11
2023-04-13T00:21:04.436Z,5.10
2023-04-13T00:23:32.148Z,5.09
2023-04-13T00:26:01.628Z,4.84
2023-04-13T00:28:30.257Z,5.03
2023-04-13T00:30:59.267Z,5.06
2023-04-13T00:33:26.674Z,5.05
2023-04-13T00:35:53.840Z,4.95
2023-04-13T00:38:20.855Z,5.02
2023-04-13T00:40:47.759Z,4.93
2023-04-13T00:43:16.740Z,4.83
2023-04-13T00:45:44.129Z,5.00
2023-04-13T00:48:31.228Z,4.99
2023-04-13T00:51:18.150Z,4.97
2023-04-13T00:54:05.354Z,4.75
2023-04-13T00:56:52.486Z,4.94
2023-04-13T00:59:40.429Z,4.74
2023-04-13T01:02:29.054Z,4.92
2023-04-13T01:05:17.370Z,4.90
2023-04-13T01:08:30.610Z,4.87
2023-04-13T01:11:24.330Z,4.86
2023-04-13T01:14:29.171Z,4.85
2023-04-13T01:17:21.538Z,4.82
2023-04-13T01:20:15.350Z,4.81
2023-04-13T01:23:10.689Z,4.79
2023-04-13T01:26:02.269Z,4.77
2023-04-13T01:28:50.473Z,4.75
2023-04-13T01:31:38.720Z,4.62
2023-04-13T01:34:26.082Z,4.71
2023-04-13T01:37:14.026Z,4.70
2023-04-13T01:40:01.223Z,4.69
2023-04-13T01:43:01.117Z,4.63
2023-04-13T01:46:07.831Z,4.66
2023-04-13T01:49:12.598Z,4.64
2023-04-13T01:52:36.566Z,4.47
2023-04-13T01:55:26.625Z,4.62
2023-04-13T01:58:18.770Z,4.61
2023-04-13T02:01:15.174Z,4.34
2023-04-13T02:04:03.111Z,4.57
2023-04-13T02:06:51.907Z,4.55
2023-04-13T02:09:45.310Z,4.54
2023-04-13T02:12:32.577Z,4.52
2023-04-13T02:15:19.689Z,4.50
2023-04-13T02:18:06.606Z,4.49
2023-04-13T02:21:05.202Z,4.44
2023-04-13T02:23:52.065Z,4.38
2023-04-13T02:26:39.404Z,4.12
2023-04-13T02:29:34.620Z,4.30
2023-04-13T02:32:22.516Z,4.43
2023-04-13T02:35:09.913Z,4.26
2023-04-13T02:37:58.998Z,4.40
2023-04-13T02:40:45.936Z,4.39
2023-04-13T02:43:33.042Z,4.28
2023-04-13T02:46:20.505Z,4.37
2023-04-13T02:49:11.623Z,4.36
2023-04-13T02:52:06.467Z,4.35
2023-04-13T02:55:11.128Z,4.30
2023-04-13T02:58:10.973Z,4.32
2023-04-13T03:00:58.694Z,4.19
2023-04-13T03:03:45.883Z,4.30
2023-04-13T03:06:33.050Z,4.29
2023-04-13T03:09:21.658Z,3.95
2023-04-13T03:12:13.780Z,4.28
2023-04-13T03:15:03.390Z,4.21
2023-04-13T03:17:51.764Z,4.26
2023-04-13T03:20:44.105Z,4.25
2023-04-13T03:23:31.700Z,4.25
2023-04-13T03:26:18.825Z,4.23
2023-04-13T03:29:06.012Z,4.22
2023-04-13T03:31:58.561Z,4.22
2023-04-13T03:34:48.245Z,4.22
2023-04-13T03:37:35.403Z,4.21
2023-04-13T03:40:31.771Z,4.20
2023-04-13T03:43:18.732Z,4.20
2023-04-13T03:46:12.658Z,4.20
2023-04-13T03:49:00.982Z,4.21
2023-04-13T03:51:48.920Z,4.12
2023-04-13T03:54:36.852Z,4.21
2023-04-13T03:57:25.374Z,4.20
2023-04-13T04:00:12.433Z,4.07
2023-04-13T04:03:10.321Z,4.15
2023-04-13T04:06:11.528Z,4.23
2023-04-13T04:09:02.072Z,4.23
2023-04-13T04:11:57.043Z,4.24
2023-04-13T04:14:58.127Z,4.25
2023-04-13T04:17:48.016Z,4.24
2023-04-13T04:20:35.405Z,4.25
2023-04-13T04:23:23.130Z,4.25
2023-04-13T04:26:18.095Z,4.25
2023-04-13T04:29:19.901Z,4.28
2023-04-13T04:32:06.967Z,4.29
2023-04-13T04:34:53.902Z,4.31
2023-04-13T04:37:42.800Z,4.31
2023-04-13T04:40:36.197Z,4.29
2023-04-13T04:43:28.354Z,4.25
2023-04-13T04:46:16.231Z,4.34
2023-04-13T04:49:09.174Z,4.24
2023-04-13T04:51:56.852Z,4.38
2023-04-13T04:54:44.750Z,4.40
2023-04-13T04:57:32.802Z,4.41
2023-04-13T05:00:20.802Z,4.33
2023-04-13T05:03:19.929Z,4.43
2023-04-13T05:06:12.589Z,4.45
2023-04-13T05:09:00.019Z,4.39
2023-04-13T05:11:50.818Z,4.47
2023-04-13T05:14:39.957Z,4.49
2023-04-13T05:17:27.040Z,4.50
2023-04-13T05:20:14.144Z,4.36
2023-04-13T05:23:08.110Z,4.51
2023-04-13T05:26:00.332Z,4.44
2023-04-13T05:28:47.426Z,4.56
2023-04-13T05:31:34.892Z,4.59
2023-04-13T05:34:23.046Z,4.42
2023-04-13T05:37:25.396Z,4.63
2023-04-13T05:40:12.413Z,4.64
2023-04-13T05:43:01.464Z,4.66
2023-04-13T05:45:52.859Z,4.69
2023-04-13T05:48:39.754Z,4.70
2023-04-13T05:51:29.474Z,4.69
2023-04-13T05:54:17.477Z,4.73
2023-04-13T05:57:08.278Z,4.76
2023-04-13T06:00:01.096Z,4.76
2023-04-13T06:03:00.567Z,4.73
2023-04-13T06:05:47.583Z,4.80
2023-04-13T06:08:35.296Z,4.82
2023-04-13T06:11:22.194Z,4.82
2023-04-13T06:14:09.273Z,4.86
2023-04-13T06:16:57.341Z,4.86
2023-04-13T06:19:44.782Z,4.82
2023-04-13T06:22:31.634Z,4.77
2023-04-13T06:25:18.753Z,4.92
2023-04-13T06:28:07.058Z,4.94
2023-04-13T06:30:58.498Z,4.95
2023-04-13T06:33:45.840Z,4.93
2023-04-13T06:36:33.404Z,4.93
2023-04-13T06:39:21.553Z,5.01
2023-04-13T06:42:16.247Z,5.03
2023-04-13T06:45:18.141Z,5.04
2023-04-13T06:48:05.245Z,4.92
2023-04-13T06:50:53.368Z,5.08
2023-04-13T06:53:40.295Z,5.10
2023-04-13T06:56:28.435Z,5.11
2023-04-13T06:59:15.435Z,5.14
2023-04-13T07:02:02.352Z,5.06
2023-04-13T07:04:51.505Z,5.19
2023-04-13T07:07:39.377Z,5.19
2023-04-13T07:10:27.172Z,5.25
2023-04-13T07:13:16.422Z,5.28
2023-04-13T07:16:03.378Z,5.28
2023-04-13T07:18:55.256Z,5.32
2023-04-13T07:21:42.391Z,5.34
2023-04-13T07:24:30.163Z,5.36
2023-04-13T07:27:19.722Z,5.38
2023-04-13T07:30:07.627Z,5.41
2023-04-13T07:32:59.345Z,5.41
2023-04-13T07:35:46.589Z,5.42
2023-04-13T07:38:34.065Z,5.44
2023-04-13T07:41:21.130Z,5.41
2023-04-13T07:44:10.466Z,5.46
2023-04-13T07:46:58.437Z,5.42
2023-04-13T07:49:47.410Z,5.46
2023-04-13T07:52:42.204Z,5.38
2023-04-13T07:55:29.435Z,5.43
2023-04-13T07:58:16.750Z,5.52
2023-04-13T08:01:03.987Z,5.10
2023-04-13T08:03:52.115Z,5.53
2023-04-13T08:06:42.651Z,5.55
2023-04-13T08:09:29.739Z,5.58
2023-04-13T08:12:16.651Z,5.60
2023-04-13T08:15:03.748Z,5.61
2023-04-13T08:17:51.055Z,5.39
2023-04-13T08:20:38.874Z,5.63
2023-04-13T08:23:26.671Z,5.65
2023-04-13T08:26:13.674Z,5.66
2023-04-13T08:29:00.763Z,5.67
2023-04-13T08:31:48.054Z,5.64
2023-04-13T08:34:34.965Z,5.67
2023-04-13T08:37:21.793Z,5.72
2023-04-13T08:40:08.868Z,5.69
2023-04-13T08:42:56.985Z,5.61
2023-04-13T08:45:45.114Z,5.41
2023-04-13T08:48:46.207Z,5.39
2023-04-13T08:51:41.943Z,5.78
2023-04-13T08:54:29.110Z,5.75
2023-04-13T08:57:17.663Z,5.42
2023-04-13T09:00:04.843Z,5.84
2023-04-13T09:03:03.664Z,5.85
2023-04-13T09:05:59.063Z,5.86
2023-04-13T09:08:47.584Z,5.86
2023-04-13T09:11:34.973Z,5.86
2023-04-13T09:14:23.256Z,5.90
2023-04-13T09:17:11.908Z,5.91
2023-04-13T09:19:59.116Z,5.94
2023-04-13T09:22:49.128Z,5.97
2023-04-13T09:25:50.098Z,6.01
2023-04-13T09:28:38.700Z,6.04
2023-04-13T09:31:25.734Z,6.09
2023-04-13T09:34:12.983Z,5.68
2023-04-13T09:37:02.023Z,6.20
2023-04-13T09:39:49.173Z,6.26
2023-04-13T09:42:37.995Z,6.32
2023-04-13T09:45:26.144Z,6.40
2023-04-13T09:48:13.112Z,6.47
2023-04-13T09:51:00.082Z,6.54
2023-04-13T09:53:47.501Z,6.57
2023-04-13T09:56:35.182Z,6.54
2023-04-13T09:59:22.280Z,6.76
2023-04-13T10:02:10.374Z,6.80
2023-04-13T10:04:57.474Z,6.88
2023-04-13T10:07:44.435Z,6.93
2023-04-13T10:10:31.966Z,6.98
2023-04-13T10:13:24.124Z,7.08
2023-04-13T10:16:20.832Z,7.15
2023-04-13T10:19:14.376Z,7.22
2023-04-13T10:22:06.945Z,7.29
2023-04-13T10:24:55.878Z,7.38
2023-04-13T10:27:47.230Z,7.47
2023-04-13T10:30:36.272Z,7.55
2023-04-13T10:33:27.229Z,7.65
2023-04-13T10:36:16.002Z,7.73
2023-04-13T10:39:03.950Z,7.50
2023-04-13T10:41:50.857Z,7.91
2023-04-13T10:44:38.955Z,8.02
2023-04-13T10:47:27.919Z,8.15
2023-04-13T10:50:15.133Z,8.24
2023-04-13T10:53:02.121Z,8.32
2023-04-13T10:55:49.397Z,8.39
2023-04-13T10:58:37.085Z,8.47
2023-04-13T11:01:24.904Z,8.53
2023-04-13T11:04:15.217Z,8.57
2023-04-13T11:07:05.006Z,8.70
2023-04-13T11:09:51.976Z,8.78
2023-04-13T11:12:39.740Z,8.85
2023-04-13T11:15:28.129Z,8.61
2023-04-13T11:18:17.384Z,8.99
2023-04-13T11:21:06.821Z,8.70
2023-04-13T11:23:55.659Z,9.15
2023-04-13T11:26:56.043Z,9.20
2023-04-13T11:29:43.102Z,9.27
2023-04-13T11:32:37.813Z,9.31
2023-04-13T11:35:32.992Z,9.33
2023-04-13T11:38:19.837Z,9.36
2023-04-13T11:43:57.011Z,9.48
2023-04-13T11:46:44.219Z,9.55
2023-04-13T11:49:31.511Z,9.62
2023-04-13T11:52:20.827Z,9.69
2023-04-13T11:55:21.703Z,9.75
2023-04-13T11:58:11.874Z,9.84
2023-04-13T12:01:03.397Z,9.85
2023-04-13T12:04:07.863Z,9.98
2023-04-13T12:07:02.488Z,10.04
2023-04-13T12:09:56.212Z,10.10
2023-04-13T12:12:54.655Z,10.12
2023-04-13T12:16:04.411Z,10.19
2023-04-13T12:18:54.630Z,10.35
2023-04-13T12:21:42.530Z,10.40
2023-04-13T12:24:30.354Z,10.48
2023-04-13T12:27:20.775Z,10.55
2023-04-13T12:30:07.744Z,10.58
2023-04-13T12:32:59.972Z,10.59
2023-04-13T12:35:46.996Z,10.66
2023-04-13T12:38:33.919Z,10.70
2023-04-13T12:41:21.899Z,10.59
2023-04-13T12:44:08.762Z,10.77
2023-04-13T12:46:55.650Z,10.67
2023-04-13T12:49:42.483Z,10.74
2023-04-13T12:52:29.337Z,10.71
2023-04-13T12:54:56.431Z,10.71
2023-04-13T12:57:23.522Z,10.54
2023-04-13T12:59:50.366Z,10.73
2023-04-13T13:02:17.287Z,10.66
2023-04-13T13:04:44.562Z,10.74
2023-04-13T13:07:11.669Z,10.76
2023-04-13T13:09:38.538Z,10.76
2023-04-13T13:12:05.639Z,10.78
2023-04-13T13:14:32.591Z,10.74
2023-04-13T13:17:00.850Z,10.76
2023-04-13T13:19:28.052Z,10.76
2023-04-13T13:21:55.291Z,10.74
2023-04-13T13:24:22.385Z,10.75
2023-04-13T13:27:14.265Z,10.73
2023-04-13T13:29:37.384Z,10.70
2023-04-13T13:32:08.036Z,10.45
2023-04-13T13:34:35.257Z,10.62
2023-04-13T13:37:02.194Z,10.60
2023-04-13T13:39:29.232Z,10.57
2023-04-13T13:41:57.329Z,10.50
2023-04-13T13:44:25.114Z,10.33
2023-04-13T13:46:52.054Z,10.45
2023-04-13T13:49:21.567Z,10.44
2023-04-13T13:51:54.625Z,10.40
2023-04-13T13:54:30.854Z,10.37
2023-04-13T13:56:58.067Z,10.33
2023-04-13T13:59:24.981Z,10.31
2023-04-13T14:01:52.023Z,10.21
2023-04-13T14:04:20.373Z,10.25
2023-04-13T14:06:49.577Z,10.12
2023-04-13T14:09:18.404Z,10.17
2023-04-13T14:11:51.780Z,10.01
2023-04-13T14:14:38.777Z,10.10
2023-04-13T14:17:26.500Z,10.03
2023-04-13T14:20:13.494Z,9.98
2023-04-13T14:23:01.312Z,9.92
2023-04-13T14:25:48.433Z,9.69
2023-04-13T14:28:35.346Z,9.79
2023-04-13T14:31:22.357Z,9.72
2023-04-13T14:34:09.746Z,9.66
2023-04-13T14:36:56.551Z,9.55
2023-04-13T14:39:43.629Z,9.41
2023-04-13T14:42:31.104Z,9.51
2023-04-13T14:45:18.093Z,9.29
2023-04-13T14:48:05.018Z,9.40
2023-04-13T14:50:51.970Z,9.02
2023-04-13T14:53:38.767Z,9.30
2023-04-13T14:56:26.049Z,9.12
2023-04-13T14:59:13.154Z,9.23
2023-04-13T15:02:00.272Z,9.05
2023-04-13T15:04:47.348Z,9.16
2023-04-13T15:07:34.368Z,9.13
2023-04-13T15:10:21.387Z,9.10
2023-04-13T15:13:08.390Z,9.08
2023-04-13T15:15:56.814Z,9.06
2023-04-13T15:18:43.816Z,9.03
2023-04-13T15:21:30.785Z,9.07
2023-04-13T15:24:17.872Z,8.92
2023-04-13T15:27:04.888Z,9.05
2023-04-13T15:29:51.859Z,9.00
2023-04-13T15:32:38.739Z,9.04
2023-04-13T15:35:26.981Z,9.04
2023-04-13T15:38:14.408Z,9.04
2023-04-13T15:41:01.249Z,9.05
2023-04-13T15:43:48.233Z,9.05
2023-04-13T15:46:35.179Z,9.05
2023-04-13T15:49:22.035Z,9.06
2023-04-13T15:52:09.286Z,9.07
2023-04-13T15:54:56.233Z,9.01
2023-04-13T15:57:43.198Z,9.08
2023-04-13T16:00:30.559Z,9.06
2023-04-13T16:03:17.838Z,9.11
2023-04-13T16:06:05.033Z,9.13
2023-04-13T16:08:52.043Z,9.14
2023-04-13T16:11:38.843Z,9.11
2023-04-13T16:14:29.491Z,9.12
2023-04-13T16:17:16.388Z,9.12
2023-04-13T16:20:03.268Z,9.12
2023-04-13T16:22:50.141Z,9.10
2023-04-13T16:25:37.845Z,9.07
2023-04-13T16:28:24.784Z,9.03
2023-04-13T16:31:14.221Z,8.97
2023-04-13T16:34:04.866Z,8.80
2023-04-13T16:36:56.200Z,8.89
2023-04-13T16:39:43.112Z,8.83
2023-04-13T16:42:30.468Z,8.77
2023-04-13T16:45:17.271Z,8.39
2023-04-13T16:48:04.287Z,8.47
2023-04-13T16:50:51.159Z,8.58
2023-04-13T16:53:38.194Z,8.42
2023-04-13T16:56:25.336Z,8.42
2023-04-13T16:59:12.428Z,8.38
2023-04-13T17:01:59.336Z,8.32
2023-04-13T17:04:46.229Z,8.21
2023-04-13T17:07:33.058Z,8.16
2023-04-13T17:10:19.940Z,8.08
2023-04-13T17:13:06.839Z,8.01
2023-04-13T17:15:53.798Z,7.94
2023-04-13T17:18:40.662Z,7.84
2023-04-13T17:21:27.586Z,7.70
2023-04-13T17:24:14.455Z,7.66
2023-04-13T17:27:01.344Z,7.63
2023-04-13T17:29:48.177Z,7.50
2023-04-13T17:32:35.219Z,7.46
2023-04-13T17:35:22.404Z,7.39
2023-04-13T17:38:09.220Z,7.25
2023-04-13T17:40:56.067Z,7.18
2023-04-13T17:43:43.033Z,7.02
2023-04-13T17:46:30.032Z,7.10
2023-04-13T17:49:16.988Z,7.03
2023-04-13T17:52:08.693Z,6.95
2023-04-13T17:54:55.652Z,6.88
2023-04-13T17:57:42.680Z,6.81
2023-04-13T18:00:30.337Z,6.75
2023-04-13T18:03:17.367Z,6.67
2023-04-13T18:06:04.443Z,6.59
2023-04-13T18:08:52.066Z,6.51
2023-04-13T18:11:38.981Z,6.44
2023-04-13T18:14:26.647Z,6.37
2023-04-13T18:17:13.560Z,6.22
2023-04-13T18:20:00.636Z,6.21
2023-04-13T18:22:47.895Z,6.18
2023-04-13T18:25:34.785Z,6.07
2023-04-13T18:28:21.638Z,5.92
2023-04-13T18:31:08.607Z,5.68
2023-04-13T18:33:55.723Z,5.90
2023-04-13T18:36:42.644Z,5.83
2023-04-13T18:39:29.646Z,5.77
2023-04-13T18:42:16.616Z,5.68
2023-04-13T18:45:03.445Z,5.62
2023-04-13T18:47:50.344Z,5.58
2023-04-13T18:50:37.265Z,5.53
2023-04-13T18:53:24.673Z,5.21
2023-04-13T18:56:12.509Z,5.39
2023-04-13T18:58:59.349Z,5.33
2023-04-13T19:01:46.265Z,5.25
2023-04-13T19:04:33.336Z,5.19
2023-04-13T19:07:20.294Z,5.16
2023-04-13T19:10:07.105Z,5.10
2023-04-13T19:12:54.797Z,5.03
2023-04-13T19:15:41.694Z,4.97
2023-04-13T19:18:28.694Z,4.79
2023-04-13T19:21:15.598Z,4.79
2023-04-13T19:24:02.367Z,4.81
2023-04-13T19:26:49.166Z,4.75
2023-04-13T19:29:36.251Z,4.69
2023-04-13T19:32:23.088Z,4.61
2023-04-13T19:35:10.805Z,4.60
2023-04-13T19:37:58.048Z,3.93
2023-04-13T19:40:44.859Z,4.50
2023-04-13T19:43:31.835Z,4.45
2023-04-13T19:46:18.718Z,4.41
2023-04-13T19:49:05.552Z,4.28
2023-04-13T19:51:52.519Z,4.31
2023-04-13T19:54:39.641Z,4.27
2023-04-13T19:57:26.485Z,4.20
2023-04-13T20:00:13.299Z,4.18
2023-04-13T20:03:00.506Z,4.11
2023-04-13T20:05:47.565Z,4.09
2023-04-13T20:08:34.503Z,4.04
2023-04-13T20:11:21.410Z,4.00
2023-04-13T20:14:08.374Z,3.96
2023-04-13T20:16:58.300Z,3.91
2023-04-13T20:19:45.150Z,3.79
2023-04-13T20:22:32.154Z,3.82
2023-04-13T20:25:19.062Z,3.78
2023-04-13T20:28:06.073Z,3.74
2023-04-13T20:30:53.122Z,3.69
2023-04-13T20:33:39.921Z,3.50
2023-04-13T20:36:26.908Z,3.62
2023-04-13T20:39:15.131Z,3.58
2023-04-13T20:42:01.993Z,3.32
2023-04-13T20:44:48.873Z,3.49
2023-04-13T20:47:36.301Z,3.40
2023-04-13T20:50:25.694Z,3.11
2023-04-13T20:53:13.990Z,3.36
2023-04-13T20:56:01.563Z,3.31
2023-04-13T20:58:50.977Z,3.28
2023-04-13T21:01:37.948Z,3.24
2023-04-13T21:04:24.783Z,2.94
2023-04-13T21:07:11.635Z,3.18
2023-04-13T21:09:58.624Z,3.09
2023-04-13T21:12:46.847Z,3.10
2023-04-13T21:15:33.763Z,3.05
2023-04-13T21:18:20.632Z,3.00
2023-04-13T21:21:07.431Z,3.03
2023-04-13T21:23:55.910Z,3.01
2023-04-13T21:26:42.805Z,2.99
2023-04-13T21:29:29.714Z,2.94
2023-04-13T21:32:16.710Z,2.94
2023-04-13T21:35:03.822Z,2.92
2023-04-13T21:37:50.831Z,2.91
2023-04-13T21:40:37.751Z,2.86
2023-04-13T21:43:24.619Z,2.87
2023-04-13T21:46:11.444Z,2.86
2023-04-13T21:48:58.397Z,2.72
2023-04-13T21:51:45.397Z,2.51
2023-04-13T21:54:32.353Z,2.79
2023-04-13T21:57:19.395Z,2.79
2023-04-13T22:00:06.700Z,2.77
2023-04-13T22:02:59.426Z,2.75
2023-04-13T22:05:46.646Z,2.48
2023-04-13T22:08:33.466Z,2.71
2023-04-13T22:11:20.830Z,2.13
2023-04-13T22:14:07.636Z,2.67
2023-04-13T22:16:54.719Z,2.63
2023-04-13T22:19:41.667Z,2.58
2023-04-13T22:22:28.563Z,2.60
2023-04-13T22:25:15.535Z,2.39
2023-04-13T22:28:02.461Z,2.56
2023-04-13T22:30:52.199Z,2.54
2023-04-13T22:33:39.941Z,2.47
2023-04-13T22:36:35.964Z,2.49
2023-04-13T22:39:22.831Z,2.47
2023-04-13T22:42:09.844Z,2.45
2023-04-13T22:44:56.753Z,2.45
2023-04-13T22:47:43.792Z,2.42
2023-04-13T22:50:30.895Z,2.40
2023-04-13T22:53:18.032Z,2.33
2023-04-13T22:56:05.024Z,2.34
2023-04-13T22:58:52.314Z,2.32
2023-04-13T23:01:39.290Z,2.29
2023-04-13T23:04:26.565Z,2.29
2023-04-13T23:07:13.553Z,2.26
2023-04-13T23:10:00.721Z,2.21
2023-04-13T23:12:47.558Z,2.18
2023-04-13T23:15:35.142Z,2.20
2023-04-13T23:18:22.113Z,2.12
2023-04-13T23:21:09.079Z,1.95
2023-04-13T23:23:56.332Z,2.13
2023-04-13T23:26:43.405Z,2.13
2023-04-13T23:29:30.289Z,2.07
2023-04-13T23:32:17.305Z,1.83
2023-04-13T23:35:04.199Z,2.07
2023-04-13T23:37:51.466Z,1.91
2023-04-13T23:40:38.413Z,1.94
2023-04-13T23:43:25.421Z,2.02
2023-04-13T23:46:12.841Z,1.98
2023-04-13T23:49:00.044Z,1.99
2023-04-13T23:51:46.976Z,1.97
2023-04-13T23:54:34.064Z,1.90
2023-04-13T23:57:20.912Z,1.94
2023-04-13T23:59:48.194Z,1.93
